Strona główna
METAR-TAF:

METAR-TAF

Lotnisko :

Port lotniczy Exeter

Exeter, Anglia

Szerokość geograficzna: 50-44N, Długość geograficzna: 003-25W, wysokość: 30 m

Aktualna obserwacja pogody

Raport powstał 3 godziny i 35 minut temu, godzina 02:20 UTC
Wiatr 3 kt od północno-północny wschód
Temperatura 4°C
Wilgotność 100%
Ciśnienie 1027 hPa
Widzialność: 6000 m
Rozproszone chmury na wysokości 3400 ft

METAR: EGTE 030220Z 02003KT 6000 SCT034 04/04 Q1027

czas: 05:55 (05:55 UTC)

Prognoza

Raport powstał 7 godziny i 0 minut temu, godzina 22:55 UTC
Prognoza ważna od 03 godzina 00 UTC do 03 godzina 04 UTC
Wiatr 4 kt od północny zachód
Widzialność: 6000 m
Mało chmury na wysokości 3000 ft
Prawdopodobieństwo 40% :
Przejściowo
od 03 godzina 00 UTC do 03 godzina 04 UTC
Widzialność: 4000 m
Przerywane chmury na wysokości 1400 ft
przelotny opad deszczu

TAF: EGTE 022255Z 0300/0304 31004KT 6000 FEW030 PROB40 TEMPO 0300/0304 4000 SHRA BKN014

Obserwacja i prognoza pogody dla ponad 4000 lotnisk (raport METAR i TAF).

Dostępne stacje oznaczono żółtymi i czerwonymi punktami na mapie.

Najedź kursorem aby zobaczyć nazwę stacji.

Kliknij aby zobaczyć obserwacje i prognozy pogody.

Aby zmienić mapę: kliknij na zielony przycisk z czarnym krzyżykiem, aby powiększyć; na zielony przycisk z myślnikiem, aby pomniejszyć; na zielone strzałki, aby przejść do map sąsiednich.


METAR-TAF: